Time;durP1;ratioP1;P1;durP2;ratioP2;P2;SDS_P1;SDS_P2;PMS_P1;PMS_P2;Temp;Humidity;BMP_temperature;BMP_pressure;BME280_temperature;BME280_humidity;BME280_pressure;Samples;Min_cycle;Max_cycle;Signal;HPM_P1;HPM_P2
2023/06/09 00:00:47;;;;;;;13.23;4.80;;;;;;;;;;4450918;32;20537;-72
2023/06/09 00:03:12;;;;;;;18.98;4.78;;;;;;;;;;4450635;32;20033;-71
2023/06/09 00:05:39;;;;;;;16.67;5.53;;;;;;;;;;4437343;32;20375;-71
2023/06/09 00:08:05;;;;;;;11.48;5.07;;;;;;;;;;4450806;32;20032;-71
2023/06/09 00:10:30;;;;;;;13.50;5.53;;;;;;;;;;4451365;32;20093;-72
2023/06/09 00:12:57;;;;;;;19.05;5.47;;;;;;;;;;4450625;32;20116;-72
2023/06/09 00:15:22;;;;;;;13.20;5.68;;;;;;;;;;4450001;32;20067;-72
2023/06/09 00:17:48;;;;;;;13.52;4.68;;;;;;;;;;4450790;32;20025;-71
2023/06/09 00:20:13;;;;;;;17.98;5.75;;;;;;;;;;4436177;32;20034;-72
2023/06/09 00:22:42;;;;;;;16.42;5.57;;;;;;;;;;4450451;32;20029;-72
2023/06/09 00:25:20;;;;;;;11.52;5.07;;;;;;;;;;4438083;32;20059;-72
2023/06/09 00:27:45;;;;;;;11.65;5.97;;;;;;;;;;4455356;32;20035;-71
2023/06/09 00:30:13;;;;;;;22.48;5.28;;;;;;;;;;4454358;32;20037;-72
2023/06/09 00:32:39;;;;;;;14.07;5.72;;;;;;;;;;4455172;32;20041;-71
2023/06/09 00:35:04;;;;;;;15.93;5.65;;;;;;;;;;4453421;32;20096;-71
2023/06/09 00:37:30;;;;;;;15.52;5.90;;;;;;;;;;4441967;32;20029;-72
2023/06/09 00:39:56;;;;;;;18.77;4.72;;;;;;;;;;4438901;32;20091;-71
2023/06/09 00:42:21;;;;;;;11.93;4.90;;;;;;;;;;4453826;32;20041;-71
2023/06/09 00:44:46;;;;;;;15.80;5.60;;;;;;;;;;4453908;32;20068;-71
2023/06/09 00:47:11;;;;;;;21.20;6.03;;;;;;;;;;4454626;32;20075;-71
2023/06/09 00:49:36;;;;;;;11.98;5.00;;;;;;;;;;4454764;32;20389;-71
2023/06/09 00:52:02;;;;;;;17.42;5.28;;;;;;;;;;4451105;32;20071;-71
2023/06/09 00:54:28;;;;;;;24.25;5.55;;;;;;;;;;4451853;32;20121;-71
2023/06/09 00:56:55;;;;;;;13.75;5.65;;;;;;;;;;4438382;32;20419;-71
2023/06/09 00:59:20;;;;;;;15.60;5.75;;;;;;;;;;4423495;32;20408;-71
2023/06/09 01:01:46;;;;;;;12.15;5.20;;;;;;;;;;4437198;32;20470;-72
2023/06/09 01:04:12;;;;;;;14.77;6.10;;;;;;;;;;4438734;32;20030;-71
2023/06/09 01:06:38;;;;;;;14.68;5.40;;;;;;;;;;4424691;32;20107;-71
2023/06/09 01:09:22;;;;;;;15.80;5.90;;;;;;;;;;4437370;32;20105;-72
2023/06/09 01:11:53;;;;;;;16.30;5.60;;;;;;;;;;4443301;32;20045;-71
2023/06/09 01:14:24;;;;;;;18.20;5.93;;;;;;;;;;4453207;32;20029;-71
2023/06/09 01:16:57;;;;;;;15.77;5.50;;;;;;;;;;4453638;32;20053;-71
2023/06/09 01:19:51;;;;;;;13.15;6.20;;;;;;;;;;4453769;32;20049;-71
2023/06/09 01:22:35;;;;;;;16.62;5.68;;;;;;;;;;4426066;32;20095;-71
2023/06/09 01:25:25;;;;;;;16.70;5.72;;;;;;;;;;4453057;32;20034;-72
2023/06/09 01:27:51;;;;;;;19.48;5.95;;;;;;;;;;4438371;32;20101;-71
2023/06/09 01:30:18;;;;;;;13.68;5.15;;;;;;;;;;4438328;32;20431;-72
2023/06/09 01:32:44;;;;;;;19.73;7.03;;;;;;;;;;4452965;32;20037;-71
2023/06/09 01:35:09;;;;;;;14.25;5.43;;;;;;;;;;4453532;32;20403;-71
2023/06/09 01:37:35;;;;;;;17.42;5.65;;;;;;;;;;4451770;32;20063;-71
2023/06/09 01:40:00;;;;;;;16.62;5.28;;;;;;;;;;4452078;32;20049;-71
2023/06/09 01:42:25;;;;;;;15.63;6.18;;;;;;;;;;4450398;32;20048;-71
2023/06/09 01:44:50;;;;;;;15.10;5.85;;;;;;;;;;4452897;32;20056;-72
2023/06/09 01:47:18;;;;;;;23.60;6.93;;;;;;;;;;4452680;32;20102;-72
2023/06/09 01:49:43;;;;;;;17.67;6.12;;;;;;;;;;4437982;32;20147;-71
2023/06/09 01:52:09;;;;;;;17.73;6.37;;;;;;;;;;4454303;32;20088;-71
2023/06/09 01:54:37;;;;;;;17.00;5.95;;;;;;;;;;4453637;32;20350;-72
2023/06/09 01:57:14;;;;;;;17.25;5.93;;;;;;;;;;4438188;32;20041;-71
2023/06/09 01:59:57;;;;;;;12.88;6.03;;;;;;;;;;4453939;32;20033;-72
2023/06/09 02:02:24;;;;;;;17.77;6.20;;;;;;;;;;4452272;32;20037;-71
2023/06/09 02:04:51;;;;;;;14.90;6.32;;;;;;;;;;4438701;32;20110;-72
2023/06/09 02:07:17;;;;;;;22.70;6.55;;;;;;;;;;4456266;32;20093;-71
2023/06/09 02:09:44;;;;;;;12.10;5.93;;;;;;;;;;4440126;32;20059;-71
2023/06/09 02:12:09;;;;;;;13.70;6.03;;;;;;;;;;4439613;32;20089;-71
2023/06/09 02:14:35;;;;;;;20.92;7.05;;;;;;;;;;4452877;32;20372;-72
2023/06/09 02:17:02;;;;;;;17.85;7.47;;;;;;;;;;4451581;32;20090;-72
2023/06/09 02:19:28;;;;;;;16.65;5.65;;;;;;;;;;4453655;32;20037;-72
2023/06/09 02:21:54;;;;;;;15.60;5.62;;;;;;;;;;4451785;32;20056;-72
2023/06/09 02:24:19;;;;;;;15.02;5.87;;;;;;;;;;4451443;32;20030;-72
2023/06/09 02:26:44;;;;;;;14.38;6.22;;;;;;;;;;4451502;32;20139;-72
2023/06/09 02:29:09;;;;;;;20.12;6.50;;;;;;;;;;4437725;32;20132;-72
2023/06/09 02:31:36;;;;;;;19.03;7.13;;;;;;;;;;4451274;32;20021;-72
2023/06/09 02:34:01;;;;;;;14.68;6.12;;;;;;;;;;4442679;32;20155;-72
2023/06/09 02:36:26;;;;;;;17.50;6.82;;;;;;;;;;4422157;32;20429;-72
2023/06/09 02:38:52;;;;;;;18.20;5.95;;;;;;;;;;4437168;32;20046;-73
2023/06/09 02:41:17;;;;;;;19.45;6.30;;;;;;;;;;4434448;32;20468;-72
2023/06/09 02:43:42;;;;;;;13.20;6.57;;;;;;;;;;4451926;32;20085;-72
2023/06/09 02:46:09;;;;;;;17.92;6.82;;;;;;;;;;4451675;32;20029;-71
2023/06/09 02:48:34;;;;;;;13.38;6.18;;;;;;;;;;4451450;32;20391;-71
2023/06/09 02:50:59;;;;;;;17.40;5.70;;;;;;;;;;4452867;32;20021;-72
2023/06/09 02:53:28;;;;;;;20.55;6.15;;;;;;;;;;4452065;32;20033;-72
2023/06/09 02:55:53;;;;;;;18.50;6.37;;;;;;;;;;4451827;32;20029;-72
2023/06/09 02:58:18;;;;;;;17.62;6.65;;;;;;;;;;4451428;32;20048;-71
2023/06/09 03:00:44;;;;;;;16.02;6.10;;;;;;;;;;4452356;32;20415;-71
2023/06/09 03:03:10;;;;;;;14.98;6.05;;;;;;;;;;4451991;32;20030;-70
2023/06/09 03:05:40;;;;;;;16.77;5.93;;;;;;;;;;4450814;32;20059;-71
2023/06/09 03:08:05;;;;;;;11.60;5.12;;;;;;;;;;4450883;32;20439;-72
2023/06/09 03:10:30;;;;;;;11.10;5.75;;;;;;;;;;4452887;32;20034;-71
2023/06/09 03:12:55;;;;;;;16.77;5.68;;;;;;;;;;4452614;32;20146;-72
2023/06/09 03:15:20;;;;;;;14.90;6.10;;;;;;;;;;4450832;32;20037;-71
2023/06/09 03:17:47;;;;;;;13.45;6.07;;;;;;;;;;4451096;32;20460;-71
2023/06/09 03:20:12;;;;;;;15.55;5.75;;;;;;;;;;4450585;32;20132;-72
2023/06/09 03:22:38;;;;;;;15.77;6.53;;;;;;;;;;4452350;32;20051;-72
2023/06/09 03:25:03;;;;;;;16.55;6.28;;;;;;;;;;4451171;32;20373;-72
2023/06/09 03:27:29;;;;;;;11.50;6.22;;;;;;;;;;4451540;32;20612;-71
2023/06/09 03:29:54;;;;;;;14.80;5.78;;;;;;;;;;4436985;32;20111;-71
2023/06/09 03:32:19;;;;;;;16.25;6.65;;;;;;;;;;4452211;32;20060;-70
2023/06/09 03:34:45;;;;;;;16.52;5.72;;;;;;;;;;4450594;32;20415;-71
2023/06/09 03:37:13;;;;;;;16.75;5.78;;;;;;;;;;4438302;32;20077;-71
2023/06/09 03:39:38;;;;;;;15.55;5.93;;;;;;;;;;4451095;32;20060;-72
2023/06/09 03:42:03;;;;;;;14.82;6.12;;;;;;;;;;4438028;32;20483;-71
2023/06/09 03:44:28;;;;;;;10.77;5.75;;;;;;;;;;4451547;32;20425;-70
2023/06/09 03:46:54;;;;;;;12.80;6.50;;;;;;;;;;4451712;32;20021;-71
2023/06/09 03:49:19;;;;;;;14.73;5.12;;;;;;;;;;4453399;32;20033;-72
2023/06/09 03:51:44;;;;;;;11.93;5.68;;;;;;;;;;4450411;32;20021;-70
2023/06/09 03:54:09;;;;;;;12.75;5.30;;;;;;;;;;4452028;32;20082;-71
2023/06/09 03:56:35;;;;;;;11.63;5.28;;;;;;;;;;4450670;32;20422;-71
2023/06/09 03:59:00;;;;;;;18.30;5.97;;;;;;;;;;4450667;32;20386;-70
2023/06/09 04:01:25;;;;;;;12.13;5.47;;;;;;;;;;4451401;32;20472;-71
2023/06/09 04:03:50;;;;;;;15.43;5.55;;;;;;;;;;4453258;32;20033;-70
2023/06/09 04:06:15;;;;;;;17.10;7.95;;;;;;;;;;4455216;32;20033;-71
2023/06/09 04:08:44;;;;;;;10.82;5.32;;;;;;;;;;4439560;32;20053;-70
2023/06/09 04:11:09;;;;;;;15.52;5.85;;;;;;;;;;4440393;32;20113;-71
2023/06/09 04:13:34;;;;;;;12.23;6.45;;;;;;;;;;4454034;32;20053;-71
2023/06/09 04:15:59;;;;;;;16.17;5.97;;;;;;;;;;4453919;32;20071;-72
2023/06/09 04:18:25;;;;;;;11.55;5.80;;;;;;;;;;4455108;32;20125;-71
2023/06/09 04:20:51;;;;;;;10.05;5.35;;;;;;;;;;4439431;32;20478;-71
2023/06/09 04:23:16;;;;;;;12.13;5.53;;;;;;;;;;4453706;32;20393;-73
2023/06/09 04:25:41;;;;;;;17.55;5.70;;;;;;;;;;4441080;32;20033;-72
2023/06/09 04:28:08;;;;;;;12.68;5.00;;;;;;;;;;4403124;32;20395;-73
2023/06/09 04:30:34;;;;;;;20.02;5.93;;;;;;;;;;4406642;32;20026;-74
2023/06/09 04:32:59;;;;;;;18.98;6.22;;;;;;;;;;4395135;32;20026;-72
2023/06/09 04:35:24;;;;;;;13.73;5.80;;;;;;;;;;4407064;32;20351;-72
2023/06/09 04:37:50;;;;;;;13.68;5.45;;;;;;;;;;4393622;32;20039;-73
2023/06/09 04:40:21;;;;;;;15.85;5.85;;;;;;;;;;4398779;32;20046;-72
2023/06/09 04:42:50;;;;;;;12.37;5.95;;;;;;;;;;4401764;32;20123;-74
2023/06/09 04:45:17;;;;;;;9.57;5.72;;;;;;;;;;4394685;32;20421;-73
2023/06/09 04:47:42;;;;;;;15.68;5.18;;;;;;;;;;4404064;32;20459;-73
2023/06/09 04:50:08;;;;;;;15.85;5.62;;;;;;;;;;4396192;32;20034;-72
2023/06/09 04:52:33;;;;;;;19.40;6.20;;;;;;;;;;4408655;32;20097;-73
2023/06/09 04:54:59;;;;;;;14.07;6.20;;;;;;;;;;4407319;32;20087;-73
2023/06/09 04:57:28;;;;;;;9.07;5.65;;;;;;;;;;4407453;32;20093;-75
2023/06/09 04:59:53;;;;;;;16.25;5.70;;;;;;;;;;4407258;32;20054;-74
2023/06/09 05:02:18;;;;;;;12.10;5.87;;;;;;;;;;4407286;32;20100;-73
2023/06/09 05:04:43;;;;;;;14.50;5.85;;;;;;;;;;4407003;32;20079;-74
2023/06/09 05:07:09;;;;;;;14.98;5.90;;;;;;;;;;4406959;32;20053;-74
2023/06/09 05:09:34;;;;;;;14.15;6.25;;;;;;;;;;4406491;32;20043;-73
2023/06/09 05:12:00;;;;;;;17.98;6.30;;;;;;;;;;4392743;32;20093;-73
2023/06/09 05:14:25;;;;;;;15.38;6.75;;;;;;;;;;4407182;32;20086;-72
2023/06/09 05:16:53;;;;;;;15.15;6.15;;;;;;;;;;4394423;32;20102;-73
2023/06/09 05:19:18;;;;;;;16.77;6.32;;;;;;;;;;4407670;32;20030;-74
2023/06/09 05:21:46;;;;;;;9.95;5.95;;;;;;;;;;4406351;32;20061;-73
2023/06/09 05:24:11;;;;;;;14.60;6.55;;;;;;;;;;4407744;32;20064;-73
2023/06/09 05:26:36;;;;;;;18.45;6.32;;;;;;;;;;4407801;32;20066;-73
2023/06/09 05:29:02;;;;;;;15.18;6.20;;;;;;;;;;4406980;32;20056;-72
2023/06/09 05:31:27;;;;;;;12.50;5.30;;;;;;;;;;4407869;32;20039;-73
2023/06/09 05:33:52;;;;;;;10.18;5.22;;;;;;;;;;4407838;32;20034;-72
2023/06/09 05:36:17;;;;;;;23.87;7.53;;;;;;;;;;4407138;32;20355;-72
2023/06/09 05:38:43;;;;;;;19.80;7.75;;;;;;;;;;4407639;32;20176;-72
2023/06/09 05:41:08;;;;;;;10.73;5.45;;;;;;;;;;4405986;32;20053;-72
2023/06/09 05:43:33;;;;;;;12.98;7.12;;;;;;;;;;4406690;32;20022;-73
2023/06/09 05:45:58;;;;;;;18.67;7.32;;;;;;;;;;4392967;32;20038;-73
2023/06/09 05:48:23;;;;;;;11.70;7.18;;;;;;;;;;4406406;32;20427;-69
2023/06/09 05:50:49;;;;;;;16.77;6.30;;;;;;;;;;4392604;32;20412;-70
2023/06/09 05:53:17;;;;;;;19.52;7.28;;;;;;;;;;4405847;32;20030;-68
2023/06/09 05:55:45;;;;;;;17.48;7.07;;;;;;;;;;4407900;32;20100;-68
2023/06/09 05:58:11;;;;;;;20.98;7.47;;;;;;;;;;4392106;32;20027;-68
2023/06/09 06:00:36;;;;;;;14.13;6.90;;;;;;;;;;4406505;32;20080;-69
2023/06/09 06:03:02;;;;;;;14.98;7.65;;;;;;;;;;4407086;32;20077;-70
2023/06/09 06:05:28;;;;;;;16.10;6.90;;;;;;;;;;4386676;32;20042;-70
2023/06/09 06:07:53;;;;;;;18.35;8.07;;;;;;;;;;4392297;32;20022;-69
2023/06/09 06:10:18;;;;;;;19.95;7.68;;;;;;;;;;4406205;32;20026;-70
2023/06/09 06:12:43;;;;;;;21.25;7.80;;;;;;;;;;4407373;32;20098;-72
2023/06/09 06:15:09;;;;;;;20.58;7.00;;;;;;;;;;4405497;32;20034;-72
2023/06/09 06:17:34;;;;;;;19.00;7.45;;;;;;;;;;4404274;32;20057;-71
2023/06/09 06:20:00;;;;;;;17.95;7.20;;;;;;;;;;4406285;32;20038;-72
2023/06/09 06:22:25;;;;;;;15.88;7.28;;;;;;;;;;4391793;32;20374;-73
2023/06/09 06:24:50;;;;;;;18.92;7.25;;;;;;;;;;4406176;32;20031;-74
2023/06/09 06:27:15;;;;;;;20.60;7.83;;;;;;;;;;4405379;32;20027;-72
2023/06/09 06:29:41;;;;;;;18.62;7.70;;;;;;;;;;4391934;32;20125;-71
2023/06/09 06:32:06;;;;;;;17.37;8.45;;;;;;;;;;4406736;32;20091;-71
2023/06/09 06:34:32;;;;;;;16.08;8.13;;;;;;;;;;4405993;32;20451;-72
2023/06/09 06:36:57;;;;;;;15.80;7.70;;;;;;;;;;4405554;32;20306;-71
2023/06/09 06:39:22;;;;;;;19.08;7.37;;;;;;;;;;4406213;32;20077;-72
2023/06/09 06:41:47;;;;;;;14.35;7.75;;;;;;;;;;4406442;32;20031;-72
2023/06/09 06:44:12;;;;;;;18.60;7.93;;;;;;;;;;4407689;32;20069;-71
2023/06/09 06:46:38;;;;;;;17.37;8.25;;;;;;;;;;4406496;32;20221;-72
2023/06/09 06:49:03;;;;;;;20.40;7.97;;;;;;;;;;4405971;32;20372;-72
2023/06/09 06:51:29;;;;;;;16.30;7.78;;;;;;;;;;4400569;32;20139;-71
2023/06/09 06:53:54;;;;;;;14.30;8.38;;;;;;;;;;4398593;32;20039;-72
2023/06/09 06:56:21;;;;;;;22.52;8.27;;;;;;;;;;4397587;32;20092;-71
2023/06/09 06:58:46;;;;;;;19.83;8.18;;;;;;;;;;4405193;32;20061;-71
2023/06/09 07:01:11;;;;;;;14.23;9.00;;;;;;;;;;4391943;32;20039;-72
2023/06/09 07:03:39;;;;;;;16.67;7.85;;;;;;;;;;4403089;32;20549;-71
2023/06/09 07:06:05;;;;;;;17.48;8.63;;;;;;;;;;4405973;32;20428;-72
2023/06/09 07:08:30;;;;;;;16.98;7.68;;;;;;;;;;4391433;32;20056;-71
2023/06/09 07:10:55;;;;;;;17.95;8.20;;;;;;;;;;4404371;32;20030;-72
2023/06/09 07:13:21;;;;;;;20.85;8.70;;;;;;;;;;4405663;32;20031;-71
2023/06/09 07:15:46;;;;;;;18.42;8.40;;;;;;;;;;4405125;32;20144;-71
2023/06/09 07:18:11;;;;;;;14.55;7.57;;;;;;;;;;4406696;32;20412;-71
2023/06/09 07:20:37;;;;;;;16.20;8.37;;;;;;;;;;4404891;32;20120;-71
2023/06/09 07:23:02;;;;;;;18.83;9.05;;;;;;;;;;4407036;32;20182;-71
2023/06/09 07:25:27;;;;;;;17.92;8.68;;;;;;;;;;4406620;32;20030;-72
2023/06/09 07:27:52;;;;;;;14.55;9.13;;;;;;;;;;4405129;32;20026;-72
2023/06/09 07:30:18;;;;;;;19.42;9.30;;;;;;;;;;4406191;32;20060;-71
2023/06/09 07:32:43;;;;;;;15.32;8.90;;;;;;;;;;4405311;32;20083;-71
2023/06/09 07:35:12;;;;;;;15.13;8.82;;;;;;;;;;4392517;32;20134;-70
2023/06/09 07:37:42;;;;;;;18.75;9.27;;;;;;;;;;4406235;32;20092;-71
2023/06/09 07:40:08;;;;;;;16.15;8.85;;;;;;;;;;4405826;32;20436;-70
2023/06/09 07:42:33;;;;;;;17.12;9.05;;;;;;;;;;4404533;32;20053;-71
2023/06/09 07:44:59;;;;;;;16.80;8.23;;;;;;;;;;4405000;32;20094;-70
2023/06/09 07:47:24;;;;;;;17.30;8.88;;;;;;;;;;4405193;32;20041;-70
2023/06/09 07:49:49;;;;;;;14.05;8.60;;;;;;;;;;4405776;32;20026;-71
2023/06/09 07:52:15;;;;;;;20.37;9.43;;;;;;;;;;4404302;32;20038;-71
2023/06/09 07:54:40;;;;;;;17.27;9.57;;;;;;;;;;4404848;32;20126;-72
2023/06/09 07:57:05;;;;;;;19.10;10.40;;;;;;;;;;4405108;32;20400;-72
2023/06/09 07:59:31;;;;;;;19.92;8.40;;;;;;;;;;4406511;32;20129;-71
2023/06/09 08:01:56;;;;;;;16.60;8.95;;;;;;;;;;4406242;32;20157;-70
2023/06/09 08:04:21;;;;;;;20.90;9.45;;;;;;;;;;4405151;32;20038;-70
2023/06/09 08:06:47;;;;;;;19.52;9.23;;;;;;;;;;4405059;32;20092;-71
2023/06/09 08:09:12;;;;;;;19.25;9.80;;;;;;;;;;4405630;32;20126;-72
2023/06/09 08:11:38;;;;;;;16.55;9.60;;;;;;;;;;4404058;32;20061;-71
2023/06/09 08:14:03;;;;;;;18.83;9.35;;;;;;;;;;4405196;32;20049;-71
2023/06/09 08:16:30;;;;;;;19.60;9.05;;;;;;;;;;4404496;32;20047;-71
2023/06/09 08:18:55;;;;;;;18.08;8.98;;;;;;;;;;4404234;32;20034;-70
2023/06/09 08:21:20;;;;;;;17.03;9.17;;;;;;;;;;4404707;32;20092;-71
2023/06/09 08:23:46;;;;;;;17.30;9.38;;;;;;;;;;4403482;32;20153;-71
2023/06/09 08:26:11;;;;;;;17.30;9.07;;;;;;;;;;4390476;32;20030;-71
2023/06/09 08:28:38;;;;;;;18.87;9.55;;;;;;;;;;4390711;32;20125;-72
2023/06/09 08:31:03;;;;;;;18.70;9.75;;;;;;;;;;4404899;32;20447;-71
2023/06/09 08:33:33;;;;;;;20.60;9.38;;;;;;;;;;4406260;32;20034;-71
2023/06/09 08:35:58;;;;;;;19.92;9.20;;;;;;;;;;4404947;32;20068;-72
2023/06/09 08:38:23;;;;;;;17.60;10.03;;;;;;;;;;4404378;32;20413;-71
2023/06/09 08:40:48;;;;;;;18.10;10.43;;;;;;;;;;4390725;32;20247;-71
2023/06/09 08:43:13;;;;;;;15.90;8.82;;;;;;;;;;4404506;32;20145;-71
2023/06/09 08:45:40;;;;;;;17.00;10.15;;;;;;;;;;4405768;32;20080;-72
2023/06/09 08:48:06;;;;;;;17.90;9.02;;;;;;;;;;4406329;32;20057;-72
2023/06/09 08:50:32;;;;;;;16.42;8.65;;;;;;;;;;4407275;32;20412;-72
2023/06/09 08:52:57;;;;;;;20.05;10.00;;;;;;;;;;4406811;32;20118;-72
2023/06/09 08:55:22;;;;;;;19.50;9.82;;;;;;;;;;4407210;32;20081;-72
2023/06/09 08:57:48;;;;;;;20.00;10.35;;;;;;;;;;4406867;32;20030;-72
2023/06/09 09:00:15;;;;;;;18.73;10.48;;;;;;;;;;4408648;32;20042;-71
2023/06/09 09:02:40;;;;;;;17.70;10.00;;;;;;;;;;4406292;32;20042;-71
2023/06/09 09:05:06;;;;;;;20.83;10.70;;;;;;;;;;4407453;32;20081;-72
2023/06/09 09:07:31;;;;;;;22.58;9.70;;;;;;;;;;4406453;32;20453;-71
2023/06/09 09:09:58;;;;;;;24.60;11.00;;;;;;;;;;4408581;32;20392;-71
2023/06/09 09:12:23;;;;;;;19.12;9.65;;;;;;;;;;4392653;32;20091;-72
2023/06/09 09:14:49;;;;;;;17.45;10.40;;;;;;;;;;4408238;32;20039;-71
2023/06/09 09:17:15;;;;;;;19.62;10.20;;;;;;;;;;4407562;32;20026;-71
2023/06/09 09:19:51;;;;;;;21.33;11.32;;;;;;;;;;4406953;32;20087;-71
2023/06/09 09:22:17;;;;;;;17.25;11.65;;;;;;;;;;4408196;32;20015;-72
2023/06/09 09:24:45;;;;;;;21.58;10.55;;;;;;;;;;4406931;32;20055;-72
2023/06/09 09:27:22;;;;;;;17.60;9.77;;;;;;;;;;4407890;32;20029;-71
2023/06/09 09:29:47;;;;;;;19.60;10.43;;;;;;;;;;4406301;32;20109;-71
2023/06/09 09:32:13;;;;;;;22.30;11.43;;;;;;;;;;4406865;32;20400;-71
2023/06/09 09:34:42;;;;;;;19.33;10.63;;;;;;;;;;4408243;32;20057;-72
2023/06/09 09:37:13;;;;;;;14.95;10.05;;;;;;;;;;4407794;32;20061;-71
2023/06/09 09:39:46;;;;;;;18.10;9.45;;;;;;;;;;4406206;32;20409;-71
2023/06/09 09:42:11;;;;;;;18.40;10.95;;;;;;;;;;4394431;32;20035;-72
2023/06/09 09:44:37;;;;;;;17.30;10.23;;;;;;;;;;4407044;32;20168;-71
2023/06/09 09:47:10;;;;;;;15.48;10.75;;;;;;;;;;4395162;32;20205;-71
2023/06/09 09:49:35;;;;;;;18.20;9.73;;;;;;;;;;4408685;32;20030;-71
2023/06/09 09:52:00;;;;;;;17.02;10.90;;;;;;;;;;4404930;32;20379;-73
2023/06/09 09:54:28;;;;;;;13.82;9.93;;;;;;;;;;4393223;32;20115;-72
2023/06/09 09:56:58;;;;;;;18.87;10.75;;;;;;;;;;4405694;32;20022;-71
2023/06/09 09:59:24;;;;;;;16.50;10.30;;;;;;;;;;4405746;32;20038;-72
2023/06/09 10:01:51;;;;;;;19.12;10.13;;;;;;;;;;4406134;32;20034;-70
2023/06/09 10:04:16;;;;;;;16.00;9.75;;;;;;;;;;4406340;32;20056;-71
2023/06/09 10:06:43;;;;;;;14.48;9.23;;;;;;;;;;4405866;32;20026;-72
2023/06/09 10:09:08;;;;;;;16.05;9.15;;;;;;;;;;4406468;32;20068;-72
2023/06/09 10:11:34;;;;;;;17.60;9.15;;;;;;;;;;4405488;32;20026;-71
2023/06/09 10:14:00;;;;;;;18.55;10.30;;;;;;;;;;4392545;32;20059;-74
2023/06/09 10:16:27;;;;;;;18.58;9.30;;;;;;;;;;4405352;32;20351;-73
2023/06/09 10:18:52;;;;;;;16.40;10.18;;;;;;;;;;4405439;32;20049;-72
2023/06/09 10:21:17;;;;;;;19.58;9.27;;;;;;;;;;4406885;32;20478;-70
2023/06/09 10:23:43;;;;;;;15.20;9.27;;;;;;;;;;4401663;32;20057;-72
2023/06/09 10:26:09;;;;;;;17.65;8.68;;;;;;;;;;4391651;32;20041;-72
2023/06/09 10:28:34;;;;;;;11.52;7.62;;;;;;;;;;4405471;32;20420;-72
2023/06/09 10:31:00;;;;;;;16.23;9.23;;;;;;;;;;4406456;32;20336;-73
2023/06/09 10:33:26;;;;;;;13.82;9.45;;;;;;;;;;4405851;32;20122;-74
2023/06/09 10:35:56;;;;;;;16.23;7.93;;;;;;;;;;4404504;32;20091;-72
2023/06/09 10:38:21;;;;;;;12.45;8.00;;;;;;;;;;4405991;32;20038;-73
2023/06/09 10:40:49;;;;;;;10.15;7.05;;;;;;;;;;4391564;32;20388;-73
2023/06/09 10:43:22;;;;;;;13.88;7.87;;;;;;;;;;4407029;32;20213;-74
2023/06/09 10:45:50;;;;;;;10.73;7.03;;;;;;;;;;4390548;32;20065;-72
2023/06/09 10:48:35;;;;;;;13.50;9.07;;;;;;;;;;4406354;32;20065;-72
2023/06/09 10:51:19;;;;;;;14.52;8.13;;;;;;;;;;4406558;32;20440;-72
2023/06/09 10:54:03;;;;;;;16.17;7.87;;;;;;;;;;4404965;32;20038;-74
2023/06/09 10:56:31;;;;;;;12.73;7.53;;;;;;;;;;4404203;32;20123;-74
2023/06/09 10:58:57;;;;;;;12.98;7.75;;;;;;;;;;4405615;32;20035;-72
2023/06/09 11:01:22;;;;;;;16.83;7.63;;;;;;;;;;4400547;32;20030;-73
2023/06/09 11:03:47;;;;;;;12.80;7.63;;;;;;;;;;4389744;32;20158;-72
2023/06/09 11:06:12;;;;;;;15.65;8.57;;;;;;;;;;4376855;32;20149;-74
2023/06/09 11:08:56;;;;;;;15.63;7.90;;;;;;;;;;4390932;32;20122;-73
2023/06/09 11:11:41;;;;;;;15.10;7.97;;;;;;;;;;4375836;32;20034;-71
2023/06/09 11:14:06;;;;;;;26.35;9.77;;;;;;;;;;4376518;32;20099;-72
2023/06/09 11:16:51;;;;;;;13.50;8.40;;;;;;;;;;4389505;32;20286;-72
2023/06/09 11:19:21;;;;;;;18.80;8.13;;;;;;;;;;4390130;32;20131;-73
2023/06/09 11:22:02;;;;;;;14.98;8.20;;;;;;;;;;4392031;32;20038;-72
2023/06/09 11:24:46;;;;;;;14.70;7.70;;;;;;;;;;4405113;32;20066;-73
2023/06/09 11:27:18;;;;;;;22.83;8.57;;;;;;;;;;4405367;32;20026;-72
2023/06/09 11:29:43;;;;;;;28.85;8.80;;;;;;;;;;4405113;32;20457;-72
2023/06/09 11:32:08;;;;;;;12.52;7.70;;;;;;;;;;4400611;32;20042;-73
2023/06/09 11:34:51;;;;;;;16.05;8.55;;;;;;;;;;4382657;32;20066;-72
2023/06/09 11:37:17;;;;;;;15.57;8.30;;;;;;;;;;4401794;32;20065;-73
2023/06/09 11:39:42;;;;;;;13.23;7.35;;;;;;;;;;4390971;32;20062;-72
2023/06/09 11:42:08;;;;;;;19.00;8.00;;;;;;;;;;4389779;32;20376;-72
2023/06/09 11:44:37;;;;;;;15.60;7.15;;;;;;;;;;4375804;32;20453;-72
2023/06/09 11:47:21;;;;;;;12.50;7.60;;;;;;;;;;4390469;32;20097;-72
2023/06/09 11:49:46;;;;;;;16.35;9.32;;;;;;;;;;4377238;32;20072;-72
2023/06/09 11:52:12;;;;;;;14.45;9.30;;;;;;;;;;4389041;32;20027;-72
2023/06/09 11:54:45;;;;;;;12.27;8.05;;;;;;;;;;4389269;32;20082;-72
2023/06/09 11:57:11;;;;;;;10.82;6.68;;;;;;;;;;4389244;32;20178;-72
2023/06/09 11:59:37;;;;;;;12.37;7.65;;;;;;;;;;4390062;32;20088;-72
2023/06/09 12:02:02;;;;;;;13.77;8.00;;;;;;;;;;4397360;32;20031;-72
2023/06/09 12:04:27;;;;;;;14.82;7.53;;;;;;;;;;4405706;32;20123;-73
2023/06/09 12:06:53;;;;;;;12.17;7.77;;;;;;;;;;4407625;32;20026;-72
2023/06/09 12:09:21;;;;;;;12.65;7.32;;;;;;;;;;4407757;32;20150;-73
2023/06/09 12:11:53;;;;;;;12.45;7.53;;;;;;;;;;4403683;32;20030;-72
2023/06/09 12:14:19;;;;;;;10.25;6.70;;;;;;;;;;4404914;32;20026;-73
2023/06/09 12:16:44;;;;;;;10.57;6.97;;;;;;;;;;4404812;32;20480;-73
2023/06/09 12:19:09;;;;;;;15.00;7.40;;;;;;;;;;4398339;32;20031;-73
2023/06/09 12:21:35;;;;;;;12.20;7.13;;;;;;;;;;4389864;32;20368;-72
2023/06/09 12:24:00;;;;;;;14.00;6.87;;;;;;;;;;4392201;32;20027;-72
2023/06/09 12:26:26;;;;;;;12.80;6.90;;;;;;;;;;4379294;32;20161;-71
2023/06/09 12:28:54;;;;;;;13.45;6.22;;;;;;;;;;4392885;32;20031;-72
2023/06/09 12:31:19;;;;;;;19.23;7.35;;;;;;;;;;4377827;32;20031;-71
2023/06/09 12:33:45;;;;;;;10.30;6.25;;;;;;;;;;4377797;32;20031;-73
2023/06/09 12:36:10;;;;;;;10.93;6.28;;;;;;;;;;4400057;32;20063;-74
2023/06/09 12:38:39;;;;;;;9.45;5.95;;;;;;;;;;4405819;32;20466;-72
2023/06/09 12:41:06;;;;;;;10.90;6.00;;;;;;;;;;4406834;32;20083;-73
2023/06/09 12:43:44;;;;;;;14.65;6.53;;;;;;;;;;4385840;32;20416;-72
2023/06/09 12:46:09;;;;;;;10.90;5.50;;;;;;;;;;4392459;32;20031;-72
2023/06/09 12:48:53;;;;;;;9.65;6.47;;;;;;;;;;4390775;32;20340;-74
2023/06/09 12:51:18;;;;;;;11.20;6.53;;;;;;;;;;4394383;32;20058;-73
2023/06/09 12:53:44;;;;;;;10.80;6.32;;;;;;;;;;4392607;32;20119;-72
2023/06/09 12:56:09;;;;;;;9.38;6.60;;;;;;;;;;4392574;32;20035;-72
2023/06/09 12:58:35;;;;;;;9.65;5.80;;;;;;;;;;4392844;32;20057;-72
2023/06/09 13:01:00;;;;;;;7.33;5.93;;;;;;;;;;4397083;32;20080;-72
2023/06/09 13:03:25;;;;;;;8.53;5.80;;;;;;;;;;4392976;32;20130;-73
2023/06/09 13:05:50;;;;;;;13.30;6.78;;;;;;;;;;4406457;32;20126;-73
2023/06/09 13:08:15;;;;;;;10.15;5.80;;;;;;;;;;4404858;32;20164;-73
2023/06/09 13:10:41;;;;;;;10.13;5.80;;;;;;;;;;4406904;32;20067;-72
2023/06/09 13:13:06;;;;;;;7.00;5.30;;;;;;;;;;4406476;32;20126;-73
2023/06/09 13:15:31;;;;;;;8.77;5.57;;;;;;;;;;4406245;32;20584;-73
2023/06/09 13:17:56;;;;;;;9.60;6.10;;;;;;;;;;4402499;32;20053;-73
2023/06/09 13:20:22;;;;;;;11.07;5.70;;;;;;;;;;4407714;32;20465;-74
2023/06/09 13:22:47;;;;;;;12.40;5.85;;;;;;;;;;4405972;32;20193;-73
2023/06/09 13:25:12;;;;;;;12.55;5.95;;;;;;;;;;4393910;32;20030;-72
2023/06/09 13:27:39;;;;;;;10.73;6.00;;;;;;;;;;4408144;32;20073;-73
2023/06/09 13:30:05;;;;;;;6.85;4.00;;;;;;;;;;4392485;32;20362;-73
2023/06/09 13:32:31;;;;;;;5.45;3.80;;;;;;;;;;4391071;32;20053;-73
2023/06/09 13:34:56;;;;;;;6.07;3.90;;;;;;;;;;4387368;32;20042;-73
2023/06/09 13:37:21;;;;;;;6.93;4.03;;;;;;;;;;4404457;32;20201;-74
2023/06/09 13:39:46;;;;;;;11.60;4.33;;;;;;;;;;4393743;32;20138;-73
2023/06/09 13:42:11;;;;;;;5.47;3.37;;;;;;;;;;4406176;32;20144;-72
2023/06/09 13:44:38;;;;;;;8.77;4.17;;;;;;;;;;4407723;32;20093;-72
2023/06/09 13:47:04;;;;;;;9.02;3.87;;;;;;;;;;4406482;32;20198;-72
2023/06/09 13:49:29;;;;;;;8.75;3.90;;;;;;;;;;4393414;32;20033;-73
2023/06/09 13:51:54;;;;;;;8.20;4.00;;;;;;;;;;4393634;32;20076;-73
2023/06/09 13:54:19;;;;;;;5.90;4.10;;;;;;;;;;4393726;32;20149;-74
2023/06/09 13:56:45;;;;;;;9.23;3.80;;;;;;;;;;4407069;32;20030;-74
2023/06/09 13:59:10;;;;;;;9.45;4.30;;;;;;;;;;4405748;32;20080;-75
2023/06/09 14:01:37;;;;;;;9.97;4.30;;;;;;;;;;4394463;32;20039;-74
2023/06/09 14:04:03;;;;;;;6.90;4.10;;;;;;;;;;4391723;32;20131;-74
2023/06/09 14:06:28;;;;;;;6.12;4.68;;;;;;;;;;4391927;32;20128;-73
2023/06/09 14:08:53;;;;;;;10.73;4.13;;;;;;;;;;4392118;32;20034;-74
2023/06/09 14:11:18;;;;;;;7.50;4.53;;;;;;;;;;4403644;32;20428;-73
2023/06/09 14:13:44;;;;;;;7.62;3.87;;;;;;;;;;4407071;32;20138;-73
2023/06/09 14:16:09;;;;;;;5.47;4.25;;;;;;;;;;4391395;32;20352;-73
2023/06/09 14:18:36;;;;;;;5.18;3.83;;;;;;;;;;4406390;32;20135;-74
2023/06/09 14:21:01;;;;;;;6.82;4.25;;;;;;;;;;4391671;32;20064;-72
2023/06/09 14:23:26;;;;;;;7.60;3.90;;;;;;;;;;4408124;32;20468;-74
2023/06/09 14:25:52;;;;;;;4.70;3.97;;;;;;;;;;4406195;32;20061;-75
2023/06/09 14:28:17;;;;;;;5.80;3.67;;;;;;;;;;4405789;32;20158;-74